createdAt,value
2019-02-15T08:53:45.623Z,14.73
2019-02-15T08:56:14.497Z,14.15
2019-02-15T08:58:42.419Z,14.47
2019-02-15T09:01:10.185Z,15.67
2019-02-15T09:03:38.043Z,15.70
2019-02-15T09:06:05.833Z,14.78
2019-02-15T09:08:33.700Z,14.47
2019-02-15T09:11:02.494Z,14.70
2019-02-15T09:13:30.380Z,14.43
2019-02-15T09:15:58.276Z,15.57
2019-02-15T09:18:26.146Z,14.77
2019-02-15T09:20:54.100Z,14.53
2019-02-15T09:23:22.020Z,13.83
2019-02-15T09:25:50.075Z,13.33
2019-02-15T09:28:26.161Z,13.47
2019-02-15T09:30:54.631Z,14.10
2019-02-15T09:33:22.617Z,13.53
2019-02-15T09:35:50.918Z,13.57
2019-02-15T09:38:18.941Z,13.93
2019-02-15T09:40:47.027Z,13.03
2019-02-15T09:43:15.095Z,13.47
2019-02-15T09:45:43.078Z,12.23
2019-02-15T09:48:11.141Z,13.17
2019-02-15T09:50:38.998Z,12.53
2019-02-15T09:53:06.852Z,13.37
2019-02-15T09:55:34.657Z,13.10
2019-02-15T09:58:02.907Z,12.60
2019-02-15T10:00:30.782Z,12.97
2019-02-15T10:02:58.719Z,12.83
2019-02-15T10:05:26.590Z,12.70
2019-02-15T10:07:54.540Z,13.33
2019-02-15T10:10:22.530Z,12.10
2019-02-15T10:12:50.345Z,12.27
2019-02-15T10:15:18.154Z,11.60
2019-02-15T10:17:46.070Z,12.60
2019-02-15T10:20:13.958Z,11.70
2019-02-15T10:22:41.892Z,11.47
2019-02-15T10:25:12.733Z,12.00
2019-02-15T10:27:40.755Z,12.13
2019-02-15T10:30:08.982Z,11.20
2019-02-15T10:32:37.138Z,11.30
2019-02-15T10:35:06.307Z,11.23
2019-02-15T10:37:34.087Z,11.63
2019-02-15T10:40:02.038Z,11.67
2019-02-15T10:42:29.824Z,11.77
2019-02-15T10:44:57.623Z,11.40
2019-02-15T10:47:25.621Z,10.77
2019-02-15T10:49:53.470Z,11.03
2019-02-15T10:52:22.033Z,11.07
2019-02-15T10:54:49.963Z,9.87
2019-02-15T10:57:18.523Z,10.23
2019-02-15T10:59:46.469Z,10.47
2019-02-15T11:02:14.221Z,10.17
2019-02-15T11:04:42.072Z,10.33
2019-02-15T11:07:09.855Z,9.97
2019-02-15T11:09:37.689Z,9.67
2019-02-15T11:12:05.730Z,9.07
2019-02-15T11:14:33.546Z,9.97
2019-02-15T11:17:03.109Z,10.27
2019-02-15T11:19:31.082Z,9.53
2019-02-15T11:21:59.046Z,9.60
2019-02-15T11:24:26.974Z,9.70
2019-02-15T11:26:54.870Z,9.67
2019-02-15T11:29:22.757Z,9.30
2019-02-15T11:31:50.574Z,8.47
2019-02-15T11:34:18.494Z,9.63
2019-02-15T11:36:46.285Z,9.07
2019-02-15T11:39:15.009Z,8.93
2019-02-15T11:41:43.188Z,8.73
2019-02-15T11:44:11.109Z,8.27
2019-02-15T11:46:38.868Z,8.60
2019-02-15T11:49:06.903Z,9.33
2019-02-15T11:51:35.385Z,8.03
2019-02-15T11:54:03.473Z,8.80
2019-02-15T11:56:31.337Z,8.30
2019-02-15T11:58:59.187Z,8.80
2019-02-15T12:01:27.054Z,9.43
2019-02-15T12:03:54.995Z,8.57
2019-02-15T12:06:23.587Z,8.50
2019-02-15T12:08:51.548Z,8.47
2019-02-15T12:11:19.602Z,8.43
2019-02-15T12:13:47.446Z,8.20
2019-02-15T12:16:15.213Z,8.67
2019-02-15T12:18:43.043Z,8.57
2019-02-15T12:21:10.982Z,8.40
2019-02-15T12:23:38.929Z,7.80
2019-02-15T12:26:06.777Z,8.80
2019-02-15T12:28:34.559Z,8.57
2019-02-15T12:31:02.408Z,8.93
2019-02-15T12:33:30.271Z,7.93
2019-02-15T12:35:58.095Z,7.93
2019-02-15T12:38:26.000Z,7.50
2019-02-15T12:40:54.020Z,9.00
2019-02-15T12:43:21.893Z,7.87
2019-02-15T12:45:49.725Z,8.87
2019-02-15T12:48:17.523Z,9.10
2019-02-15T12:50:45.556Z,8.97
2019-02-15T12:53:13.423Z,8.53
2019-02-15T12:55:41.753Z,8.47
2019-02-15T12:58:09.502Z,7.70
2019-02-15T13:00:40.960Z,11.73
2019-02-15T13:03:08.963Z,18.27
2019-02-15T13:05:36.913Z,29.33
2019-02-15T13:08:04.899Z,11.60
2019-02-15T13:10:35.282Z,8.77
2019-02-15T13:13:03.205Z,8.50
2019-02-15T13:15:31.027Z,8.17
2019-02-15T13:17:59.127Z,7.97
2019-02-15T13:20:27.199Z,8.10
2019-02-15T13:22:54.974Z,8.83
2019-02-15T13:25:23.027Z,8.20
2019-02-15T13:27:50.924Z,8.10
2019-02-15T13:30:18.744Z,9.07
2019-02-15T13:32:46.552Z,8.97
2019-02-15T13:35:15.643Z,8.60
2019-02-15T13:37:43.410Z,8.93
2019-02-15T13:40:11.332Z,8.27
2019-02-15T13:42:39.218Z,8.67
2019-02-15T13:45:08.385Z,8.57
2019-02-15T13:47:36.256Z,9.17
2019-02-15T13:50:04.435Z,8.43
2019-02-15T13:52:32.328Z,9.07
2019-02-15T13:55:00.307Z,8.87
2019-02-15T13:57:28.244Z,9.90
2019-02-15T13:59:56.096Z,8.63
2019-02-15T14:02:24.076Z,9.30
2019-02-15T14:04:53.101Z,10.60
2019-02-15T14:07:20.875Z,9.03
2019-02-15T14:09:49.036Z,9.73
2019-02-15T14:12:17.005Z,16.00
2019-02-15T14:14:44.903Z,10.37
2019-02-15T14:17:12.833Z,9.07
2019-02-15T14:19:40.819Z,8.73
2019-02-15T14:22:08.980Z,9.37
2019-02-15T14:24:37.635Z,9.27
2019-02-15T14:27:05.565Z,9.27
2019-02-15T14:29:33.503Z,9.33
2019-02-15T14:32:01.476Z,9.43
2019-02-15T14:34:29.390Z,9.70
2019-02-15T14:36:57.208Z,10.13
2019-02-15T14:39:25.073Z,9.33
2019-02-15T14:41:52.914Z,9.23
2019-02-15T14:44:20.776Z,8.73
2019-02-15T14:46:48.691Z,9.40
2019-02-15T14:49:16.473Z,9.03
2019-02-15T14:51:44.336Z,8.50
2019-02-15T14:54:12.291Z,8.50
2019-02-15T14:56:40.239Z,8.93
2019-02-15T14:59:08.084Z,9.67
2019-02-15T15:01:36.036Z,9.40
2019-02-15T15:04:03.788Z,9.40
2019-02-15T15:06:31.613Z,9.03
2019-02-15T15:08:59.492Z,8.97
2019-02-15T15:11:28.061Z,8.93
2019-02-15T15:13:55.857Z,8.40
2019-02-15T15:16:23.670Z,9.10
2019-02-15T15:18:51.453Z,8.63
2019-02-15T15:21:19.371Z,8.90
2019-02-15T15:23:47.139Z,8.23
2019-02-15T15:26:15.062Z,9.43
2019-02-15T15:28:42.957Z,9.40
2019-02-15T15:31:11.239Z,8.83
2019-02-15T15:33:39.358Z,9.37
2019-02-15T15:36:12.730Z,9.77
2019-02-15T15:38:40.628Z,10.23
2019-02-15T15:41:08.686Z,10.97
2019-02-15T15:43:36.483Z,11.70
2019-02-15T15:46:04.409Z,11.77
2019-02-15T15:48:32.895Z,10.70
2019-02-15T15:51:00.738Z,10.83
2019-02-15T15:53:28.620Z,11.20
2019-02-15T15:55:56.432Z,11.80
2019-02-15T15:58:24.220Z,10.93
2019-02-15T16:00:52.216Z,10.67
2019-02-15T16:03:20.146Z,11.33
2019-02-15T16:05:47.939Z,12.10
2019-02-15T16:08:16.407Z,11.00
2019-02-15T16:10:44.965Z,10.70
2019-02-15T16:13:13.143Z,10.60
2019-02-15T16:15:41.015Z,10.30
2019-02-15T16:18:08.886Z,10.33
2019-02-15T16:20:36.757Z,16.40
2019-02-15T16:23:04.705Z,14.23
2019-02-15T16:25:32.680Z,11.20
2019-02-15T16:28:01.808Z,13.13
2019-02-15T16:30:30.436Z,10.33
2019-02-15T16:32:58.292Z,11.40
2019-02-15T16:35:26.092Z,11.53
2019-02-15T16:37:56.890Z,9.87
2019-02-15T16:40:25.642Z,9.53
2019-02-15T16:42:54.705Z,10.77
2019-02-15T16:45:23.795Z,10.17
2019-02-15T16:47:51.717Z,10.37
2019-02-15T16:50:19.640Z,10.97
2019-02-15T16:52:48.722Z,14.10
2019-02-15T16:55:16.495Z,13.90
2019-02-15T16:57:44.429Z,11.40
2019-02-15T17:00:12.664Z,9.23
2019-02-15T17:02:40.481Z,9.93
2019-02-15T17:05:08.561Z,9.90
2019-02-15T17:07:36.592Z,15.97
2019-02-15T17:10:04.993Z,22.70
2019-02-15T17:12:33.178Z,16.57
2019-02-15T17:15:00.945Z,10.47
2019-02-15T17:17:28.808Z,12.87
2019-02-15T17:19:57.219Z,12.30
2019-02-15T17:22:25.232Z,15.10
2019-02-15T17:24:53.109Z,18.80
2019-02-15T17:27:21.179Z,87.93
2019-02-15T17:29:49.766Z,21.30
2019-02-15T17:32:17.626Z,14.17
2019-02-15T17:34:45.549Z,18.93
2019-02-15T17:37:13.427Z,27.63
2019-02-15T17:39:41.333Z,25.40
2019-02-15T17:42:09.207Z,16.77
2019-02-15T17:44:37.110Z,18.23
2019-02-15T17:47:05.079Z,10.30
2019-02-15T17:49:32.848Z,13.27
2019-02-15T17:52:00.635Z,13.83
2019-02-15T17:54:28.471Z,14.30
2019-02-15T17:57:03.366Z,14.17
2019-02-15T17:59:34.778Z,13.10
2019-02-15T18:02:03.191Z,12.03
2019-02-15T18:04:31.140Z,11.47
2019-02-15T18:06:59.005Z,11.67
2019-02-15T18:09:26.905Z,13.43
2019-02-15T18:11:59.942Z,12.83
2019-02-15T18:14:28.366Z,27.33
2019-02-15T18:16:56.279Z,25.67
2019-02-15T18:19:24.102Z,17.80
2019-02-15T18:21:51.940Z,13.47
2019-02-15T18:24:19.905Z,21.80
2019-02-15T18:26:48.098Z,19.80
2019-02-15T18:29:16.466Z,16.37
2019-02-15T18:31:44.346Z,19.77
2019-02-15T18:34:12.172Z,17.80
2019-02-15T18:36:40.075Z,20.37
2019-02-15T18:39:08.896Z,105.13
2019-02-15T18:41:37.560Z,519.70
2019-02-15T18:44:05.574Z,521.80
2019-02-15T18:46:33.515Z,220.73
2019-02-15T18:49:01.628Z,113.10
2019-02-15T18:51:29.542Z,40.80
2019-02-15T18:53:57.499Z,25.17
2019-02-15T18:56:25.294Z,41.20
2019-02-15T18:58:53.266Z,33.07
2019-02-15T19:01:21.181Z,25.93
2019-02-15T19:03:49.168Z,24.23
2019-02-15T19:06:19.084Z,27.47
2019-02-15T19:08:46.938Z,26.20
2019-02-15T19:11:14.931Z,23.33
2019-02-15T19:13:43.124Z,23.23
2019-02-15T19:16:11.394Z,23.20
2019-02-15T19:18:39.996Z,40.13
2019-02-15T19:21:08.162Z,23.37
2019-02-15T19:23:36.799Z,23.53
2019-02-15T19:26:04.748Z,23.77
2019-02-15T19:28:32.786Z,23.27
2019-02-15T19:31:02.619Z,24.37
2019-02-15T19:33:30.586Z,32.83
2019-02-15T19:35:58.519Z,52.90
2019-02-15T19:38:26.526Z,42.20
2019-02-15T19:40:54.459Z,51.57
2019-02-15T19:43:22.387Z,50.33
2019-02-15T19:45:52.125Z,40.87
2019-02-15T19:48:20.050Z,30.67
2019-02-15T19:50:48.629Z,33.53
2019-02-15T19:53:16.603Z,38.90
2019-02-15T19:55:44.379Z,41.83
2019-02-15T19:58:12.256Z,40.00
2019-02-15T20:00:40.122Z,37.37
2019-02-15T20:03:07.937Z,35.87
2019-02-15T20:05:35.791Z,33.90
2019-02-15T20:08:04.214Z,31.90
2019-02-15T20:10:32.307Z,33.80
2019-02-15T20:13:00.985Z,31.83
2019-02-15T20:15:29.105Z,31.37
2019-02-15T20:17:57.331Z,30.03
2019-02-15T20:20:25.329Z,29.80
2019-02-15T20:22:53.123Z,31.27
2019-02-15T20:25:22.420Z,29.17
2019-02-15T20:27:51.254Z,29.20
2019-02-15T20:30:19.318Z,29.47
2019-02-15T20:32:47.328Z,28.80
2019-02-15T20:35:17.772Z,27.73
2019-02-15T20:37:45.797Z,28.40
2019-02-15T20:40:14.748Z,28.63
2019-02-15T20:42:42.587Z,27.30
2019-02-15T20:45:15.460Z,31.67
2019-02-15T20:47:43.340Z,27.13
2019-02-15T20:50:16.856Z,27.27
2019-02-15T20:52:44.801Z,29.93
2019-02-15T20:55:13.827Z,30.50
2019-02-15T20:57:41.852Z,25.30
2019-02-15T21:00:14.231Z,23.20
2019-02-15T21:02:42.422Z,22.77
2019-02-15T21:05:11.163Z,23.90
2019-02-15T21:07:39.055Z,23.23
2019-02-15T21:10:09.217Z,23.03
2019-02-15T21:12:39.450Z,23.17
2019-02-15T21:15:07.328Z,23.03
2019-02-15T21:17:35.250Z,23.33
2019-02-15T21:20:07.945Z,24.77
2019-02-15T21:22:33.503Z,23.80
2019-02-15T21:25:01.511Z,26.07
2019-02-15T21:27:29.319Z,26.43
2019-02-15T21:29:57.868Z,27.10
2019-02-15T21:32:25.785Z,26.30
2019-02-15T21:34:53.810Z,26.00
2019-02-15T21:37:21.830Z,24.60
2019-02-15T21:39:50.329Z,26.00
2019-02-15T21:42:18.251Z,25.37
2019-02-15T21:44:46.229Z,24.27
2019-02-15T21:47:14.005Z,25.37
2019-02-15T21:49:53.986Z,25.67
2019-02-15T21:52:21.996Z,24.93
2019-02-15T21:54:50.677Z,24.23
2019-02-15T21:57:18.701Z,26.13
2019-02-15T21:59:46.545Z,25.27
2019-02-15T22:02:14.531Z,29.90
2019-02-15T22:04:42.770Z,30.33
2019-02-15T22:07:10.548Z,30.70
2019-02-15T22:09:38.442Z,28.33
2019-02-15T22:12:06.398Z,29.60
2019-02-15T22:14:35.195Z,27.90
2019-02-15T22:17:03.774Z,27.70
2019-02-15T22:19:32.204Z,27.67
2019-02-15T22:22:00.174Z,29.37
2019-02-15T22:24:27.975Z,28.43
2019-02-15T22:26:56.059Z,27.73
2019-02-15T22:29:23.848Z,29.73
2019-02-15T22:31:53.129Z,30.30
2019-02-15T22:34:20.950Z,29.20
2019-02-15T22:36:48.833Z,29.57
2019-02-15T22:39:16.632Z,29.73
2019-02-15T22:41:44.505Z,29.73
2019-02-15T22:44:12.261Z,28.60
2019-02-15T22:46:40.873Z,28.77
2019-02-15T22:49:08.742Z,28.30
2019-02-15T22:51:39.484Z,29.63
2019-02-15T22:54:07.427Z,31.53
2019-02-15T22:56:35.384Z,37.50
2019-02-15T22:59:03.431Z,40.90
2019-02-15T23:01:32.365Z,53.97
2019-02-15T23:04:00.250Z,67.17
2019-02-15T23:06:28.479Z,62.73
2019-02-15T23:08:56.427Z,50.47
2019-02-15T23:11:24.553Z,43.55
2019-02-15T23:13:52.428Z,43.08
2019-02-15T23:16:20.344Z,47.67
2019-02-15T23:18:48.350Z,49.85
2019-02-15T23:21:16.213Z,41.28
2019-02-15T23:23:43.998Z,39.27
2019-02-15T23:26:11.914Z,38.13
2019-02-15T23:28:39.717Z,39.67
2019-02-15T23:31:07.595Z,37.47
2019-02-15T23:33:36.122Z,36.13
2019-02-15T23:36:04.001Z,35.78
2019-02-15T23:38:31.900Z,35.07
2019-02-15T23:40:59.786Z,37.48
2019-02-15T23:43:27.658Z,36.68
2019-02-15T23:45:55.581Z,37.08
2019-02-15T23:48:23.455Z,36.75
2019-02-15T23:50:54.841Z,34.85
2019-02-15T23:53:32.322Z,34.48
2019-02-15T23:56:00.172Z,34.67
2019-02-15T23:58:28.129Z,35.10
